sensor_id;sensor_type;location;lat;lon;timestamp;pressure;altitude;pressure_sealevel;temperature;humidity
17230;BME280;8731;50.364;8.958;2023-01-28T00:01:23;100995.25;;;3.23;92.35
17230;BME280;8731;50.364;8.958;2023-01-28T00:05:45;100990.22;;;3.23;92.42
17230;BME280;8731;50.364;8.958;2023-01-28T00:10:09;100993.31;;;3.15;92.16
17230;BME280;8731;50.364;8.958;2023-01-28T00:14:33;100989.00;;;3.14;92.51
17230;BME280;8731;50.364;8.958;2023-01-28T00:18:55;100992.81;;;3.17;91.69
17230;BME280;8731;50.364;8.958;2023-01-28T00:23:17;100991.97;;;2.98;92.59
17230;BME280;8731;50.364;8.958;2023-01-28T00:27:39;100988.03;;;3.00;92.49
17230;BME280;8731;50.364;8.958;2023-01-28T00:32:03;100983.94;;;2.83;93.37
17230;BME280;8731;50.364;8.958;2023-01-28T00:36:26;100988.75;;;2.81;93.42
17230;BME280;8731;50.364;8.958;2023-01-28T00:40:48;100986.41;;;2.88;92.57
17230;BME280;8731;50.364;8.958;2023-01-28T00:45:10;100983.03;;;2.82;92.26
17230;BME280;8731;50.364;8.958;2023-01-28T00:49:34;100972.66;;;2.73;93.09
17230;BME280;8731;50.364;8.958;2023-01-28T00:53:56;100975.25;;;2.68;93.53
17230;BME280;8731;50.364;8.958;2023-01-28T00:58:20;100971.75;;;2.55;93.38
17230;BME280;8731;50.364;8.958;2023-01-28T01:02:43;100979.31;;;2.55;92.92
17230;BME280;8731;50.364;8.958;2023-01-28T01:07:07;100991.38;;;2.57;92.90
17230;BME280;8731;50.364;8.958;2023-01-28T01:11:29;100994.75;;;2.63;92.87
17230;BME280;8731;50.364;8.958;2023-01-28T01:16:00;101003.94;;;2.57;93.31
17230;BME280;8731;50.364;8.958;2023-01-28T01:20:25;101000.69;;;2.64;93.55
17230;BME280;8731;50.364;8.958;2023-01-28T01:24:51;101010.72;;;2.64;94.00
17230;BME280;8731;50.364;8.958;2023-01-28T01:29:15;101009.13;;;2.64;94.35
17230;BME280;8731;50.364;8.958;2023-01-28T01:33:37;101012.97;;;2.68;93.74
17230;BME280;8731;50.364;8.958;2023-01-28T01:37:59;101023.34;;;2.76;93.98
17230;BME280;8731;50.364;8.958;2023-01-28T01:42:23;101020.72;;;2.69;94.12
17230;BME280;8731;50.364;8.958;2023-01-28T01:46:49;101027.97;;;2.73;93.40
17230;BME280;8731;50.364;8.958;2023-01-28T01:51:16;101019.44;;;2.78;93.40
17230;BME280;8731;50.364;8.958;2023-01-28T01:55:43;101029.50;;;2.78;94.12
17230;BME280;8731;50.364;8.958;2023-01-28T02:00:12;101030.09;;;2.83;94.10
17230;BME280;8731;50.364;8.958;2023-01-28T02:04:38;101024.41;;;2.84;93.97
17230;BME280;8731;50.364;8.958;2023-01-28T02:09:05;101023.28;;;2.82;93.75
17230;BME280;8731;50.364;8.958;2023-01-28T02:13:45;101028.78;;;2.80;94.21
17230;BME280;8731;50.364;8.958;2023-01-28T02:18:12;101033.91;;;2.74;93.65
17230;BME280;8731;50.364;8.958;2023-01-28T02:22:56;101032.22;;;2.80;93.27
17230;BME280;8731;50.364;8.958;2023-01-28T02:27:36;101030.69;;;2.75;93.89
17230;BME280;8731;50.364;8.958;2023-01-28T02:32:16;101026.75;;;2.59;94.89
17230;BME280;8731;50.364;8.958;2023-01-28T02:36:47;101031.19;;;2.72;94.28
17230;BME280;8731;50.364;8.958;2023-01-28T02:41:30;101032.16;;;2.67;93.55
17230;BME280;8731;50.364;8.958;2023-01-28T02:45:59;101033.91;;;2.74;94.02
17230;BME280;8731;50.364;8.958;2023-01-28T02:50:53;101033.19;;;2.57;94.43
17230;BME280;8731;50.364;8.958;2023-01-28T02:55:27;101039.69;;;2.67;93.58
17230;BME280;8731;50.364;8.958;2023-01-28T03:00:02;101036.78;;;2.64;93.75
17230;BME280;8731;50.364;8.958;2023-01-28T03:04:35;101028.81;;;2.61;93.97
17230;BME280;8731;50.364;8.958;2023-01-28T03:09:03;101036.38;;;2.61;94.33
17230;BME280;8731;50.364;8.958;2023-01-28T03:13:44;101042.72;;;2.65;93.02
17230;BME280;8731;50.364;8.958;2023-01-28T03:18:29;101052.91;;;2.72;92.60
17230;BME280;8731;50.364;8.958;2023-01-28T03:23:19;101055.41;;;2.72;92.68
17230;BME280;8731;50.364;8.958;2023-01-28T03:28:12;101064.44;;;2.64;92.77
17230;BME280;8731;50.364;8.958;2023-01-28T03:32:57;101066.88;;;2.70;93.02
17230;BME280;8731;50.364;8.958;2023-01-28T03:37:38;101072.72;;;2.76;93.06
17230;BME280;8731;50.364;8.958;2023-01-28T03:42:18;101070.91;;;2.75;92.19
17230;BME280;8731;50.364;8.958;2023-01-28T03:47:03;101072.50;;;2.74;92.36
17230;BME280;8731;50.364;8.958;2023-01-28T03:51:28;101076.22;;;2.71;91.50
17230;BME280;8731;50.364;8.958;2023-01-28T03:55:52;101084.75;;;2.66;91.60
17230;BME280;8731;50.364;8.958;2023-01-28T04:00:18;101085.66;;;2.66;92.49
17230;BME280;8731;50.364;8.958;2023-01-28T04:04:41;101085.16;;;2.69;91.92
17230;BME280;8731;50.364;8.958;2023-01-28T04:09:03;101082.38;;;2.73;91.55
17230;BME280;8731;50.364;8.958;2023-01-28T04:13:33;101078.25;;;2.73;91.15
17230;BME280;8731;50.364;8.958;2023-01-28T04:17:56;101085.50;;;2.77;91.42
17230;BME280;8731;50.364;8.958;2023-01-28T04:22:24;101085.50;;;2.77;90.89
17230;BME280;8731;50.364;8.958;2023-01-28T04:26:47;101086.41;;;2.78;91.28
17230;BME280;8731;50.364;8.958;2023-01-28T04:31:10;101084.66;;;2.71;90.59
17230;BME280;8731;50.364;8.958;2023-01-28T04:35:54;101075.94;;;2.75;90.48
17230;BME280;8731;50.364;8.958;2023-01-28T04:40:49;101082.50;;;2.80;91.26
17230;BME280;8731;50.364;8.958;2023-01-28T04:45:20;101083.91;;;2.78;90.80
17230;BME280;8731;50.364;8.958;2023-01-28T04:49:51;101093.53;;;2.75;90.24
17230;BME280;8731;50.364;8.958;2023-01-28T04:54:29;101092.41;;;2.73;90.32
17230;BME280;8731;50.364;8.958;2023-01-28T04:58:55;101094.81;;;2.66;90.04
17230;BME280;8731;50.364;8.958;2023-01-28T05:03:17;101095.78;;;2.61;90.34
17230;BME280;8731;50.364;8.958;2023-01-28T05:07:40;101088.78;;;2.71;90.20
17230;BME280;8731;50.364;8.958;2023-01-28T05:12:04;101092.97;;;2.65;90.23
17230;BME280;8731;50.364;8.958;2023-01-28T05:16:29;101097.22;;;2.53;90.14
17230;BME280;8731;50.364;8.958;2023-01-28T05:20:53;101106.78;;;2.56;89.58
17230;BME280;8731;50.364;8.958;2023-01-28T05:25:16;101103.06;;;2.59;89.56
17230;BME280;8731;50.364;8.958;2023-01-28T05:29:41;101104.44;;;2.63;88.79
17230;BME280;8731;50.364;8.958;2023-01-28T05:34:03;101111.31;;;2.58;89.01
17230;BME280;8731;50.364;8.958;2023-01-28T05:38:25;101122.72;;;2.62;88.24
17230;BME280;8731;50.364;8.958;2023-01-28T05:42:48;101120.94;;;2.55;88.98
17230;BME280;8731;50.364;8.958;2023-01-28T05:47:24;101134.16;;;2.60;88.48
17230;BME280;8731;50.364;8.958;2023-01-28T05:51:58;101129.38;;;2.61;88.57
17230;BME280;8731;50.364;8.958;2023-01-28T05:56:21;101132.59;;;2.55;87.81
17230;BME280;8731;50.364;8.958;2023-01-28T06:00:43;101135.31;;;2.62;88.55
17230;BME280;8731;50.364;8.958;2023-01-28T06:05:09;101131.38;;;2.64;88.08
17230;BME280;8731;50.364;8.958;2023-01-28T06:09:32;101143.25;;;2.65;87.69
17230;BME280;8731;50.364;8.958;2023-01-28T06:13:56;101149.19;;;2.65;87.68
17230;BME280;8731;50.364;8.958;2023-01-28T06:18:44;101152.03;;;2.56;87.04
17230;BME280;8731;50.364;8.958;2023-01-28T06:23:08;101159.78;;;2.57;86.92
17230;BME280;8731;50.364;8.958;2023-01-28T06:27:30;101156.63;;;2.53;86.63
17230;BME280;8731;50.364;8.958;2023-01-28T06:31:53;101162.78;;;2.55;87.44
17230;BME280;8731;50.364;8.958;2023-01-28T06:36:15;101163.66;;;2.61;87.40
17230;BME280;8731;50.364;8.958;2023-01-28T06:40:39;101167.75;;;2.60;86.71
17230;BME280;8731;50.364;8.958;2023-01-28T06:45:01;101168.44;;;2.59;86.77
17230;BME280;8731;50.364;8.958;2023-01-28T06:49:24;101170.53;;;2.56;87.27
17230;BME280;8731;50.364;8.958;2023-01-28T06:53:46;101173.25;;;2.58;86.81
17230;BME280;8731;50.364;8.958;2023-01-28T06:58:10;101168.19;;;2.63;86.82
17230;BME280;8731;50.364;8.958;2023-01-28T07:02:32;101182.59;;;2.59;86.50
17230;BME280;8731;50.364;8.958;2023-01-28T07:06:55;101182.84;;;2.60;86.88
17230;BME280;8731;50.364;8.958;2023-01-28T07:11:17;101200.44;;;2.60;86.57
17230;BME280;8731;50.364;8.958;2023-01-28T07:15:41;101192.16;;;2.67;86.74
17230;BME280;8731;50.364;8.958;2023-01-28T07:20:04;101190.13;;;2.64;86.06
17230;BME280;8731;50.364;8.958;2023-01-28T07:24:27;101200.88;;;2.63;86.75
17230;BME280;8731;50.364;8.958;2023-01-28T07:28:50;101210.44;;;2.66;86.58
17230;BME280;8731;50.364;8.958;2023-01-28T07:33:13;101201.78;;;2.64;86.67
17230;BME280;8731;50.364;8.958;2023-01-28T07:37:36;101210.00;;;2.63;86.07
17230;BME280;8731;50.364;8.958;2023-01-28T07:41:59;101204.53;;;2.60;86.82
17230;BME280;8731;50.364;8.958;2023-01-28T07:46:27;101212.94;;;2.66;85.46
17230;BME280;8731;50.364;8.958;2023-01-28T07:50:50;101215.47;;;2.66;86.19
17230;BME280;8731;50.364;8.958;2023-01-28T07:55:13;101221.34;;;2.72;86.09
17230;BME280;8731;50.364;8.958;2023-01-28T07:59:36;101214.53;;;3.31;86.66
17230;BME280;8731;50.364;8.958;2023-01-28T08:03:58;101220.78;;;2.80;86.16
17230;BME280;8731;50.364;8.958;2023-01-28T08:08:23;101238.59;;;2.82;85.40
17230;BME280;8731;50.364;8.958;2023-01-28T08:12:50;101233.78;;;2.83;85.71
17230;BME280;8731;50.364;8.958;2023-01-28T08:17:13;101233.97;;;2.90;85.15
17230;BME280;8731;50.364;8.958;2023-01-28T08:21:36;101243.28;;;2.73;85.10
17230;BME280;8731;50.364;8.958;2023-01-28T08:25:59;101245.34;;;2.70;83.85
17230;BME280;8731;50.364;8.958;2023-01-28T08:30:22;101243.28;;;2.73;83.66
17230;BME280;8731;50.364;8.958;2023-01-28T08:34:44;101249.16;;;2.79;82.44
17230;BME280;8731;50.364;8.958;2023-01-28T08:39:06;101247.81;;;2.52;81.63
17230;BME280;8731;50.364;8.958;2023-01-28T08:43:30;101244.66;;;2.71;81.05
17230;BME280;8731;50.364;8.958;2023-01-28T08:47:54;101249.91;;;2.72;81.42
17230;BME280;8731;50.364;8.958;2023-01-28T08:52:17;101260.59;;;2.77;81.04
17230;BME280;8731;50.364;8.958;2023-01-28T08:56:40;101255.28;;;2.81;81.11
17230;BME280;8731;50.364;8.958;2023-01-28T09:01:06;101256.69;;;2.79;80.60
17230;BME280;8731;50.364;8.958;2023-01-28T09:05:28;101255.06;;;2.85;80.05
17230;BME280;8731;50.364;8.958;2023-01-28T09:09:52;101256.91;;;2.81;80.57
17230;BME280;8731;50.364;8.958;2023-01-28T09:14:14;101260.81;;;2.78;78.82
17230;BME280;8731;50.364;8.958;2023-01-28T09:18:38;101259.38;;;2.86;78.92
17230;BME280;8731;50.364;8.958;2023-01-28T09:23:01;101273.81;;;2.82;79.81
17230;BME280;8731;50.364;8.958;2023-01-28T09:27:23;101275.16;;;2.85;79.61
17230;BME280;8731;50.364;8.958;2023-01-28T09:31:46;101273.09;;;2.88;78.97
17230;BME280;8731;50.364;8.958;2023-01-28T09:36:10;101272.81;;;2.92;78.71
17230;BME280;8731;50.364;8.958;2023-01-28T09:40:35;101282.09;;;2.75;77.50
17230;BME280;8731;50.364;8.958;2023-01-28T09:45:06;101294.53;;;2.92;77.29
17230;BME280;8731;50.364;8.958;2023-01-28T09:49:40;101294.19;;;3.01;78.50
17230;BME280;8731;50.364;8.958;2023-01-28T09:54:17;101297.34;;;3.06;79.12
17230;BME280;8731;50.364;8.958;2023-01-28T09:58:45;101307.41;;;3.06;78.54
17230;BME280;8731;50.364;8.958;2023-01-28T10:03:31;101301.03;;;3.08;78.32
17230;BME280;8731;50.364;8.958;2023-01-28T10:08:06;101312.94;;;3.03;78.56
17230;BME280;8731;50.364;8.958;2023-01-28T10:13:00;101310.84;;;3.06;77.60
17230;BME280;8731;50.364;8.958;2023-01-28T10:17:37;101310.13;;;3.07;77.57
17230;BME280;8731;50.364;8.958;2023-01-28T10:22:06;101320.44;;;3.09;76.69
17230;BME280;8731;50.364;8.958;2023-01-28T10:26:35;101318.66;;;3.02;76.28
17230;BME280;8731;50.364;8.958;2023-01-28T10:31:04;101311.03;;;3.14;75.94
17230;BME280;8731;50.364;8.958;2023-01-28T10:35:38;101318.16;;;3.05;75.64
17230;BME280;8731;50.364;8.958;2023-01-28T10:40:02;101324.78;;;3.10;75.76
17230;BME280;8731;50.364;8.958;2023-01-28T10:44:30;101320.75;;;2.99;75.22
17230;BME280;8731;50.364;8.958;2023-01-28T10:49:01;101325.91;;;3.12;74.74
17230;BME280;8731;50.364;8.958;2023-01-28T10:53:33;101315.78;;;3.18;74.91
17230;BME280;8731;50.364;8.958;2023-01-28T10:57:57;101314.31;;;3.25;74.83
17230;BME280;8731;50.364;8.958;2023-01-28T11:02:28;101314.53;;;3.27;74.89
17230;BME280;8731;50.364;8.958;2023-01-28T11:06:59;101323.13;;;3.16;73.29
17230;BME280;8731;50.364;8.958;2023-01-28T11:11:24;101324.88;;;3.23;72.82
17230;BME280;8731;50.364;8.958;2023-01-28T11:15:50;101317.59;;;3.19;72.61
17230;BME280;8731;50.364;8.958;2023-01-28T11:20:19;101322.28;;;3.28;72.65
17230;BME280;8731;50.364;8.958;2023-01-28T11:24:46;101330.50;;;3.33;72.96
17230;BME280;8731;50.364;8.958;2023-01-28T11:29:21;101323.69;;;3.02;70.73
17230;BME280;8731;50.364;8.958;2023-01-28T11:33:48;101316.00;;;3.19;71.51
17230;BME280;8731;50.364;8.958;2023-01-28T11:38:17;101315.72;;;3.23;70.99
17230;BME280;8731;50.364;8.958;2023-01-28T11:42:43;101316.09;;;3.32;71.81
17230;BME280;8731;50.364;8.958;2023-01-28T11:47:15;101313.41;;;3.25;69.51
17230;BME280;8731;50.364;8.958;2023-01-28T11:51:52;101298.91;;;3.35;70.71
17230;BME280;8731;50.364;8.958;2023-01-28T11:56:29;101307.00;;;3.03;68.97
17230;BME280;8731;50.364;8.958;2023-01-28T12:01:09;101309.03;;;3.48;71.04
17230;BME280;8731;50.364;8.958;2023-01-28T12:05:45;101299.97;;;3.19;69.28
17230;BME280;8731;50.364;8.958;2023-01-28T12:10:16;101288.09;;;3.18;69.28
17230;BME280;8731;50.364;8.958;2023-01-28T12:19:56;101287.75;;;3.27;69.34
17230;BME280;8731;50.364;8.958;2023-01-28T12:24:39;101282.22;;;3.30;68.35
17230;BME280;8731;50.364;8.958;2023-01-28T12:29:21;101275.69;;;3.01;68.63
17230;BME280;8731;50.364;8.958;2023-01-28T12:34:01;101265.06;;;3.51;69.55
17230;BME280;8731;50.364;8.958;2023-01-28T12:38:55;101255.41;;;3.36;68.36
17230;BME280;8731;50.364;8.958;2023-01-28T12:43:40;101252.75;;;3.47;68.95
17230;BME280;8731;50.364;8.958;2023-01-28T12:48:12;101263.72;;;3.48;69.16
17230;BME280;8731;50.364;8.958;2023-01-28T12:52:39;101254.72;;;3.55;68.76
17230;BME280;8731;50.364;8.958;2023-01-28T12:57:13;101250.78;;;3.76;69.50
17230;BME280;8731;50.364;8.958;2023-01-28T13:01:45;101257.84;;;3.78;68.93
17230;BME280;8731;50.364;8.958;2023-01-28T13:06:13;101256.47;;;3.80;68.99
17230;BME280;8731;50.364;8.958;2023-01-28T13:10:43;101267.44;;;3.62;67.63
17230;BME280;8731;50.364;8.958;2023-01-28T13:15:12;101277.91;;;3.29;67.32
17230;BME280;8731;50.364;8.958;2023-01-28T13:19:38;101284.38;;;3.63;68.52
17230;BME280;8731;50.364;8.958;2023-01-28T13:24:05;101293.75;;;3.64;67.67
17230;BME280;8731;50.364;8.958;2023-01-28T13:28:39;101286.59;;;3.67;69.30
17230;BME280;8731;50.364;8.958;2023-01-28T13:33:05;101295.34;;;3.64;67.73
17230;BME280;8731;50.364;8.958;2023-01-28T13:37:44;101287.19;;;3.59;66.95
17230;BME280;8731;50.364;8.958;2023-01-28T13:42:18;101296.00;;;3.02;64.84
17230;BME280;8731;50.364;8.958;2023-01-28T13:46:46;101289.69;;;3.41;64.98
17230;BME280;8731;50.364;8.958;2023-01-28T13:51:17;101293.44;;;3.50;66.01
17230;BME280;8731;50.364;8.958;2023-01-28T13:55:43;101299.00;;;3.66;67.39
17230;BME280;8731;50.364;8.958;2023-01-28T14:00:12;101297.53;;;3.55;66.37
17230;BME280;8731;50.364;8.958;2023-01-28T14:04:55;101299.41;;;3.32;64.99
17230;BME280;8731;50.364;8.958;2023-01-28T14:09:54;101296.97;;;3.63;67.29
17230;BME280;8731;50.364;8.958;2023-01-28T14:14:40;101288.63;;;3.52;66.93
17230;BME280;8731;50.364;8.958;2023-01-28T14:19:28;101297.09;;;3.34;66.30
17230;BME280;8731;50.364;8.958;2023-01-28T14:23:55;101298.56;;;3.63;66.61
17230;BME280;8731;50.364;8.958;2023-01-28T14:28:27;101300.31;;;3.33;65.16
17230;BME280;8731;50.364;8.958;2023-01-28T14:33:00;101298.47;;;3.50;68.04
17230;BME280;8731;50.364;8.958;2023-01-28T14:37:26;101293.41;;;3.14;65.90
17230;BME280;8731;50.364;8.958;2023-01-28T14:41:52;101279.16;;;3.20;66.43
17230;BME280;8731;50.364;8.958;2023-01-28T14:46:28;101282.94;;;3.29;66.45
17230;BME280;8731;50.364;8.958;2023-01-28T14:51:15;101283.50;;;3.21;66.58
17230;BME280;8731;50.364;8.958;2023-01-28T14:56:03;101275.13;;;3.33;67.79
17230;BME280;8731;50.364;8.958;2023-01-28T15:00:35;101281.53;;;3.31;66.37
17230;BME280;8731;50.364;8.958;2023-01-28T15:05:08;101286.47;;;3.42;66.10
17230;BME280;8731;50.364;8.958;2023-01-28T15:09:34;101280.56;;;3.54;66.33
17230;BME280;8731;50.364;8.958;2023-01-28T15:13:57;101274.41;;;3.52;66.31
17230;BME280;8731;50.364;8.958;2023-01-28T15:18:27;101268.91;;;3.55;66.88
17230;BME280;8731;50.364;8.958;2023-01-28T15:22:53;101259.38;;;3.28;67.44
17230;BME280;8731;50.364;8.958;2023-01-28T15:27:17;101255.06;;;3.03;66.67
17230;BME280;8731;50.364;8.958;2023-01-28T15:31:47;101272.75;;;3.40;67.42
17230;BME280;8731;50.364;8.958;2023-01-28T15:36:10;101270.72;;;3.37;67.06
17230;BME280;8731;50.364;8.958;2023-01-28T15:40:40;101268.00;;;3.36;67.53
17230;BME280;8731;50.364;8.958;2023-01-28T15:45:04;101269.38;;;3.16;66.46
17230;BME280;8731;50.364;8.958;2023-01-28T15:49:40;101285.94;;;3.26;67.73
17230;BME280;8731;50.364;8.958;2023-01-28T15:54:08;101286.22;;;3.22;67.64
17230;BME280;8731;50.364;8.958;2023-01-28T15:58:32;101286.44;;;3.24;67.92
17230;BME280;8731;50.364;8.958;2023-01-28T16:03:06;101293.28;;;3.25;67.80
17230;BME280;8731;50.364;8.958;2023-01-28T16:07:31;101294.94;;;3.19;68.11
17230;BME280;8731;50.364;8.958;2023-01-28T16:12:04;101302.56;;;3.13;68.10
17230;BME280;8731;50.364;8.958;2023-01-28T16:16:32;101316.06;;;3.14;68.54
17230;BME280;8731;50.364;8.958;2023-01-28T16:20:57;101302.78;;;3.15;67.99
17230;BME280;8731;50.364;8.958;2023-01-28T16:25:27;101304.00;;;3.05;69.68
17230;BME280;8731;50.364;8.958;2023-01-28T16:29:50;101317.75;;;3.02;69.83
17230;BME280;8731;50.364;8.958;2023-01-28T16:34:14;101320.75;;;2.99;69.24
17230;BME280;8731;50.364;8.958;2023-01-28T16:38:36;101306.84;;;2.96;70.13
17230;BME280;8731;50.364;8.958;2023-01-28T16:43:00;101314.88;;;2.93;70.03
17230;BME280;8731;50.364;8.958;2023-01-28T16:47:22;101320.66;;;2.87;69.79
17230;BME280;8731;50.364;8.958;2023-01-28T16:51:45;101325.97;;;2.77;68.77
17230;BME280;8731;50.364;8.958;2023-01-28T16:56:11;101336.72;;;2.76;69.46
17230;BME280;8731;50.364;8.958;2023-01-28T17:00:35;101334.91;;;2.75;69.48
17230;BME280;8731;50.364;8.958;2023-01-28T17:04:57;101340.19;;;2.71;70.14
17230;BME280;8731;50.364;8.958;2023-01-28T17:09:22;101339.59;;;2.61;70.28
17230;BME280;8731;50.364;8.958;2023-01-28T17:13:44;101350.78;;;2.63;70.23
17230;BME280;8731;50.364;8.958;2023-01-28T17:18:08;101348.97;;;2.62;70.96
17230;BME280;8731;50.364;8.958;2023-01-28T17:22:36;101344.44;;;2.54;70.33
17230;BME280;8731;50.364;8.958;2023-01-28T17:27:00;101338.44;;;2.59;70.55
17230;BME280;8731;50.364;8.958;2023-01-28T17:31:22;101338.44;;;2.59;70.64
17230;BME280;8731;50.364;8.958;2023-01-28T17:35:45;101338.44;;;2.59;71.44
17230;BME280;8731;50.364;8.958;2023-01-28T17:40:09;101359.72;;;2.20;72.31
17230;BME280;8731;50.364;8.958;2023-01-28T17:44:33;101371.69;;;2.45;72.19
17230;BME280;8731;50.364;8.958;2023-01-28T17:48:56;101378.09;;;2.43;72.26
17230;BME280;8731;50.364;8.958;2023-01-28T17:53:18;101385.16;;;2.45;72.43
17230;BME280;8731;50.364;8.958;2023-01-28T17:57:42;101381.56;;;2.32;72.03
17230;BME280;8731;50.364;8.958;2023-01-28T18:02:14;101390.97;;;2.28;72.44
17230;BME280;8731;50.364;8.958;2023-01-28T18:07:23;101396.91;;;2.28;72.64
17230;BME280;8731;50.364;8.958;2023-01-28T18:11:46;101402.63;;;2.27;72.17
17230;BME280;8731;50.364;8.958;2023-01-28T18:21:30;101426.88;;;2.21;72.63
17230;BME280;8731;50.364;8.958;2023-01-28T18:25:55;101444.25;;;2.14;71.93
17230;BME280;8731;50.364;8.958;2023-01-28T18:30:18;101444.94;;;2.13;72.15
17230;BME280;8731;50.364;8.958;2023-01-28T18:34:40;101436.47;;;2.12;71.76
17230;BME280;8731;50.364;8.958;2023-01-28T18:39:04;101434.63;;;2.23;72.07
17230;BME280;8731;50.364;8.958;2023-01-28T18:43:27;101442.63;;;2.20;72.32
17230;BME280;8731;50.364;8.958;2023-01-28T18:47:51;101438.28;;;2.19;72.47
17230;BME280;8731;50.364;8.958;2023-01-28T18:52:14;101429.16;;;2.20;71.67
17230;BME280;8731;50.364;8.958;2023-01-28T18:56:51;101437.16;;;2.17;72.50
17230;BME280;8731;50.364;8.958;2023-01-28T19:07:25;101460.25;;;2.03;71.13
17230;BME280;8731;50.364;8.958;2023-01-28T19:11:51;101458.84;;;2.11;71.85
17230;BME280;8731;50.364;8.958;2023-01-28T19:16:13;101457.00;;;2.21;71.80
17230;BME280;8731;50.364;8.958;2023-01-28T19:20:36;101454.03;;;2.12;71.96
17230;BME280;8731;50.364;8.958;2023-01-28T19:24:59;101448.59;;;2.15;71.72
17230;BME280;8731;50.364;8.958;2023-01-28T19:29:22;101453.59;;;2.09;72.08
17230;BME280;8731;50.364;8.958;2023-01-28T19:33:51;101433.03;;;2.12;71.74
17230;BME280;8731;50.364;8.958;2023-01-28T19:38:14;101438.06;;;2.12;71.11
17230;BME280;8731;50.364;8.958;2023-01-28T19:42:37;101432.41;;;2.02;71.23
17230;BME280;8731;50.364;8.958;2023-01-28T19:47:00;101446.09;;;2.04;71.68
17230;BME280;8731;50.364;8.958;2023-01-28T19:51:24;101470.13;;;1.91;71.52
17230;BME280;8731;50.364;8.958;2023-01-28T19:55:47;101470.34;;;1.87;70.92
17230;BME280;8731;50.364;8.958;2023-01-28T20:00:10;101467.63;;;1.91;72.00
17230;BME280;8731;50.364;8.958;2023-01-28T20:04:34;101459.41;;;1.92;71.41
17230;BME280;8731;50.364;8.958;2023-01-28T20:08:59;101475.56;;;1.88;72.22
17230;BME280;8731;50.364;8.958;2023-01-28T20:13:23;101469.66;;;1.88;71.46
17230;BME280;8731;50.364;8.958;2023-01-28T20:17:45;101476.53;;;1.77;71.30
17230;BME280;8731;50.364;8.958;2023-01-28T20:22:09;101475.59;;;1.82;71.02
17230;BME280;8731;50.364;8.958;2023-01-28T20:26:33;101474.94;;;1.78;70.54
17230;BME280;8731;50.364;8.958;2023-01-28T20:31:02;101473.34;;;1.73;70.85
17230;BME280;8731;50.364;8.958;2023-01-28T20:35:25;101474.47;;;1.75;70.57
17230;BME280;8731;50.364;8.958;2023-01-28T20:39:49;101471.50;;;1.77;71.28
17230;BME280;8731;50.364;8.958;2023-01-28T20:44:11;101486.59;;;1.66;70.95
17230;BME280;8731;50.364;8.958;2023-01-28T20:48:35;101483.16;;;1.71;71.15
17230;BME280;8731;50.364;8.958;2023-01-28T20:52:57;101491.63;;;1.66;70.26
17230;BME280;8731;50.364;8.958;2023-01-28T20:57:21;101484.97;;;1.72;71.10
17230;BME280;8731;50.364;8.958;2023-01-28T21:01:43;101484.31;;;1.73;70.66
17230;BME280;8731;50.364;8.958;2023-01-28T21:06:06;101483.16;;;1.71;70.42
17230;BME280;8731;50.364;8.958;2023-01-28T21:10:28;101483.38;;;1.73;71.29
17230;BME280;8731;50.364;8.958;2023-01-28T21:14:52;101473.81;;;1.70;71.09
17230;BME280;8731;50.364;8.958;2023-01-28T21:19:14;101482.72;;;1.68;71.13
17230;BME280;8731;50.364;8.958;2023-01-28T21:23:36;101485.44;;;1.70;70.77
17230;BME280;8731;50.364;8.958;2023-01-28T21:27:58;101482.47;;;1.61;70.97
17230;BME280;8731;50.364;8.958;2023-01-28T21:32:23;101485.91;;;1.67;70.83
17230;BME280;8731;50.364;8.958;2023-01-28T21:36:45;101474.47;;;1.64;71.32
17230;BME280;8731;50.364;8.958;2023-01-28T21:41:08;101473.13;;;1.60;70.67
17230;BME280;8731;50.364;8.958;2023-01-28T21:45:31;101479.06;;;1.66;71.02
17230;BME280;8731;50.364;8.958;2023-01-28T21:49:54;101482.00;;;1.64;71.11
17230;BME280;8731;50.364;8.958;2023-01-28T21:54:18;101472.66;;;1.57;71.14
17230;BME280;8731;50.364;8.958;2023-01-28T21:58:40;101478.38;;;1.62;70.57
17230;BME280;8731;50.364;8.958;2023-01-28T22:03:20;101472.19;;;1.65;70.74
17230;BME280;8731;50.364;8.958;2023-01-28T22:07:45;101468.78;;;1.59;71.19
17230;BME280;8731;50.364;8.958;2023-01-28T22:12:07;101472.66;;;1.57;70.97
17230;BME280;8731;50.364;8.958;2023-01-28T22:16:30;101466.72;;;1.62;71.44
17230;BME280;8731;50.364;8.958;2023-01-28T22:20:56;101462.16;;;1.60;71.69
17230;BME280;8731;50.364;8.958;2023-01-28T22:25:20;101465.16;;;1.46;70.25
17230;BME280;8731;50.364;8.958;2023-01-28T22:29:42;101467.88;;;1.53;71.20
17230;BME280;8731;50.364;8.958;2023-01-28T22:34:05;101466.06;;;1.58;70.85
17230;BME280;8731;50.364;8.958;2023-01-28T22:38:28;101469.00;;;1.61;70.99
17230;BME280;8731;50.364;8.958;2023-01-28T22:42:52;101458.97;;;1.61;71.26
17230;BME280;8731;50.364;8.958;2023-01-28T22:47:14;101462.38;;;1.61;71.27
17230;BME280;8731;50.364;8.958;2023-01-28T22:51:36;101454.41;;;1.58;70.08
17230;BME280;8731;50.364;8.958;2023-01-28T22:55:59;101440.06;;;1.29;70.82
17230;BME280;8731;50.364;8.958;2023-01-28T23:00:26;101447.56;;;1.57;69.72
17230;BME280;8731;50.364;8.958;2023-01-28T23:04:48;101446.44;;;1.55;70.44
17230;BME280;8731;50.364;8.958;2023-01-28T23:09:11;101452.13;;;1.60;70.24
17230;BME280;8731;50.364;8.958;2023-01-28T23:13:33;101451.69;;;1.51;70.47
17230;BME280;8731;50.364;8.958;2023-01-28T23:24:19;101455.13;;;1.46;70.30
17230;BME280;8731;50.364;8.958;2023-01-28T23:28:41;101457.84;;;1.36;69.72
17230;BME280;8731;50.364;8.958;2023-01-28T23:33:04;101454.88;;;1.39;70.13
17230;BME280;8731;50.364;8.958;2023-01-28T23:37:26;101460.59;;;1.38;70.20
17230;BME280;8731;50.364;8.958;2023-01-28T23:41:50;101449.44;;;1.30;70.67
17230;BME280;8731;50.364;8.958;2023-01-28T23:46:13;101462.66;;;1.23;69.44
17230;BME280;8731;50.364;8.958;2023-01-28T23:50:35;101456.72;;;1.23;70.18
17230;BME280;8731;50.364;8.958;2023-01-28T23:54:57;101461.06;;;1.18;70.09
17230;BME280;8731;50.364;8.958;2023-01-28T23:59:21;101463.13;;;1.27;69.82
